Adell, Wisconsin
Current Conditions -  °F | °C
As of 2:53 AM on Thursday 27 Nov 2014 (Local Time) from KSBM Reporting Station
Light Snow Light Snow  
Wind Chill: 14°   Ceiling: 4900
Heat Index: 22°   Visibility: 3mi
Dew Point: 19°   Wind: 6mph
Humidity: 89%   Direction: 300°WNW
Pressure: 30.21"   Gusts: NA
Location:  43.62°N, 87.95°W
Report Text: KSBM 270853Z AUTO 30005KT 3SM -SN BR BKN049 OVC075 M06/M07 A3021 RMK AO2 SLP242 P0000 60000 T10561072 51006
Loading
Personal Weather Stations






























Interactive Weather Map New forecast layout! Learn more

10-Day Weather Forecast

Advertisements
Track Severe Weather on mobile